createdAt,value
2023-02-05T00:01:35.978Z,100753.44
2023-02-05T00:03:39.064Z,100757.00
2023-02-05T00:05:40.815Z,100757.13
2023-02-05T00:07:44.554Z,100752.03
2023-02-05T00:09:46.185Z,100752.03
2023-02-05T00:11:47.671Z,100755.88
2023-02-05T00:13:49.210Z,100742.56
2023-02-05T00:15:50.813Z,100740.16
2023-02-05T00:17:52.328Z,100745.53
2023-02-05T00:19:53.899Z,100736.75
2023-02-05T00:21:55.612Z,100729.69
2023-02-05T00:23:57.359Z,100736.06
2023-02-05T00:25:59.638Z,100729.97
2023-02-05T00:28:01.237Z,100729.97
2023-02-05T00:30:02.868Z,100722.91
2023-02-05T00:32:04.635Z,100726.56
2023-02-05T00:34:06.473Z,100717.66
2023-02-05T00:36:11.824Z,100721.47
2023-02-05T00:38:14.236Z,100719.81
2023-02-05T00:40:15.979Z,100734.22
2023-02-05T00:42:17.513Z,100735.09
2023-02-05T00:44:19.052Z,100731.69
2023-02-05T00:46:21.836Z,100733.53
2023-02-05T00:48:23.415Z,100734.53
2023-02-05T00:50:25.060Z,100738.22
2023-02-05T00:52:26.523Z,100742.75
2023-02-05T00:54:30.881Z,100742.91
2023-02-05T00:56:35.578Z,100746.56
2023-02-05T00:58:37.321Z,100747.56
2023-02-05T01:00:39.962Z,100745.72
2023-02-05T01:02:41.802Z,100743.19
2023-02-05T01:04:43.392Z,100744.16
2023-02-05T01:06:45.134Z,100751.38
2023-02-05T01:08:47.412Z,100751.38
2023-02-05T01:10:50.641Z,100765.00
2023-02-05T01:12:52.140Z,100765.97
2023-02-05T01:14:54.153Z,100765.97
2023-02-05T01:16:55.787Z,100762.47
2023-02-05T01:18:57.642Z,100758.91
2023-02-05T01:20:59.436Z,100752.69
2023-02-05T01:23:00.931Z,100749.13
2023-02-05T01:25:06.067Z,100746.44
2023-02-05T01:27:07.686Z,100742.91
2023-02-05T01:29:09.329Z,100740.22
2023-02-05T01:31:11.022Z,100733.16
2023-02-05T01:33:12.612Z,100728.75
2023-02-05T01:35:14.318Z,100729.75
2023-02-05T01:37:16.021Z,100727.91
2023-02-05T01:39:17.738Z,100727.19
2023-02-05T01:41:19.563Z,100727.19
2023-02-05T01:43:21.224Z,100719.28
2023-02-05T01:45:22.808Z,100719.41
2023-02-05T01:47:24.825Z,100709.78
2023-02-05T01:49:39.920Z,100715.16
2023-02-05T01:51:41.978Z,100718.00
2023-02-05T01:53:45.786Z,100716.31
2023-02-05T01:55:57.590Z,100714.63
2023-02-05T01:58:01.421Z,100708.38
2023-02-05T02:00:05.756Z,100714.75
2023-02-05T02:02:19.349Z,100708.66
2023-02-05T02:04:34.576Z,100700.75
2023-02-05T02:06:42.985Z,100695.38
2023-02-05T02:08:47.221Z,100699.03
2023-02-05T02:10:51.385Z,100689.31
2023-02-05T02:12:54.737Z,100681.22
2023-02-05T02:15:04.998Z,100679.69
2023-02-05T02:17:07.954Z,100661.69
2023-02-05T02:19:40.953Z,100664.53
2023-02-05T02:21:52.122Z,100654.91
2023-02-05T02:23:58.610Z,100651.38
2023-02-05T02:26:25.087Z,100652.38
2023-02-05T02:28:31.591Z,100657.88
2023-02-05T02:30:46.148Z,100654.50
2023-02-05T02:32:58.571Z,100652.78
2023-02-05T02:35:45.405Z,100652.94
2023-02-05T02:37:55.206Z,100658.47
2023-02-05T02:40:20.265Z,100657.91
2023-02-05T02:42:34.639Z,100657.03
2023-02-05T02:44:49.077Z,100658.06
2023-02-05T02:46:56.920Z,100662.56
2023-02-05T02:49:07.904Z,100653.66
2023-02-05T02:51:12.404Z,100654.63
2023-02-05T02:53:30.895Z,100649.41
2023-02-05T02:55:39.024Z,100663.84
2023-02-05T02:57:44.384Z,100657.63
2023-02-05T02:59:48.152Z,100660.44
2023-02-05T03:01:55.395Z,100656.09
2023-02-05T03:04:07.221Z,100658.91
2023-02-05T03:06:11.257Z,100654.38
2023-02-05T03:08:38.675Z,100657.06
2023-02-05T03:10:48.845Z,100649.16
2023-02-05T03:12:57.976Z,100651.13
2023-02-05T03:15:01.238Z,100645.88
2023-02-05T03:17:04.047Z,100648.56
2023-02-05T03:19:06.751Z,100651.41
2023-02-05T03:21:16.022Z,100647.03
2023-02-05T03:23:18.407Z,100637.25
2023-02-05T03:25:23.145Z,100639.94
2023-02-05T03:27:28.050Z,100632.88
2023-02-05T03:29:38.930Z,100633.00
2023-02-05T03:32:01.505Z,100633.16
2023-02-05T03:34:33.823Z,100622.56
2023-02-05T03:36:58.096Z,100621.72
2023-02-05T03:39:25.870Z,100618.34
2023-02-05T03:41:57.130Z,100622.97
2023-02-05T03:44:18.244Z,100619.59
2023-02-05T03:46:52.801Z,100611.53
2023-02-05T03:49:18.644Z,100610.66
2023-02-05T03:51:35.681Z,100615.22
2023-02-05T03:53:57.015Z,100614.38
2023-02-05T03:56:17.951Z,100617.19
2023-02-05T03:58:27.455Z,100617.19
2023-02-05T04:00:31.577Z,100619.88
2023-02-05T04:02:35.291Z,100622.56
2023-02-05T04:04:37.130Z,100622.56
2023-02-05T04:06:40.515Z,100621.72
2023-02-05T04:08:44.199Z,100621.72
2023-02-05T04:10:48.329Z,100626.09
2023-02-05T04:12:49.832Z,100625.25
2023-02-05T04:14:52.431Z,100626.25
2023-02-05T04:16:54.022Z,100618.19
2023-02-05T04:18:57.970Z,100624.53
2023-02-05T04:21:02.004Z,100623.56
2023-02-05T04:23:04.978Z,100620.19
2023-02-05T04:25:13.534Z,100615.78
2023-02-05T04:27:15.580Z,100625.66
2023-02-05T04:29:17.205Z,100616.75
2023-02-05T04:31:21.593Z,100629.22
2023-02-05T04:33:29.487Z,100634.88
2023-02-05T04:35:31.238Z,100633.19
2023-02-05T04:37:35.985Z,100635.88
2023-02-05T04:39:38.217Z,100636.69
2023-02-05T04:41:39.912Z,100629.66
2023-02-05T04:43:44.034Z,100633.19
2023-02-05T04:45:45.643Z,100636.84
2023-02-05T04:47:48.437Z,100638.69
2023-02-05T04:49:50.080Z,100634.31
2023-02-05T04:51:53.188Z,100634.16
2023-02-05T04:54:00.926Z,100634.31
2023-02-05T04:56:14.176Z,100634.31
2023-02-05T04:58:17.980Z,100626.38
2023-02-05T05:00:20.193Z,100618.31
2023-02-05T05:02:23.083Z,100629.94
2023-02-05T05:04:25.189Z,100630.91
2023-02-05T05:06:26.798Z,100633.59
2023-02-05T05:08:28.677Z,100636.16
2023-02-05T05:10:31.891Z,100637.28
2023-02-05T05:12:35.664Z,100643.50
2023-02-05T05:14:37.688Z,100637.28
2023-02-05T05:16:39.463Z,100637.28
2023-02-05T05:18:42.124Z,100637.28
2023-02-05T05:20:43.744Z,100641.81
2023-02-05T05:22:45.382Z,100646.19
2023-02-05T05:24:47.131Z,100651.56
2023-02-05T05:26:50.724Z,100639.97
2023-02-05T05:28:56.547Z,100641.81
2023-02-05T05:30:58.090Z,100641.81
2023-02-05T05:32:59.741Z,100640.09
2023-02-05T05:35:01.473Z,100636.44
2023-02-05T05:37:02.996Z,100629.22
2023-02-05T05:39:23.210Z,100623.00
2023-02-05T05:41:43.690Z,100611.41
2023-02-05T05:43:48.296Z,100616.94
2023-02-05T05:45:53.034Z,100619.72
2023-02-05T05:47:55.087Z,100630.47
2023-02-05T05:49:56.821Z,100633.16
2023-02-05T05:51:58.479Z,100641.22
2023-02-05T05:54:00.368Z,100648.47
2023-02-05T05:56:03.162Z,100643.09
2023-02-05T05:58:06.350Z,100641.22
2023-02-05T06:00:09.587Z,100643.09
2023-02-05T06:02:17.305Z,100632.47
2023-02-05T06:04:18.851Z,100627.09
2023-02-05T06:06:23.284Z,100625.38
2023-02-05T06:08:25.013Z,100628.06
2023-02-05T06:10:26.671Z,100626.22
2023-02-05T06:12:30.035Z,100626.38
2023-02-05T06:14:31.688Z,100624.56
2023-02-05T06:16:35.926Z,100619.19
2023-02-05T06:18:37.604Z,100619.19
2023-02-05T06:20:39.506Z,100615.50
2023-02-05T06:22:43.888Z,100620.00
2023-02-05T06:24:45.433Z,100612.97
2023-02-05T06:26:47.025Z,100615.50
2023-02-05T06:28:48.491Z,100613.66
2023-02-05T06:30:50.282Z,100618.19
2023-02-05T06:32:51.852Z,100623.53
2023-02-05T06:34:53.419Z,100624.41
2023-02-05T06:36:55.042Z,100613.53
2023-02-05T06:38:56.659Z,100614.50
2023-02-05T06:40:58.237Z,100612.53
2023-02-05T06:43:01.987Z,100616.94
2023-02-05T06:45:03.942Z,100614.22
2023-02-05T06:47:05.781Z,100609.56
2023-02-05T06:49:07.386Z,100600.53
2023-02-05T06:51:09.206Z,100605.59
2023-02-05T06:53:11.930Z,100601.06
2023-02-05T06:55:13.620Z,100598.25
2023-02-05T06:57:15.194Z,100609.56
2023-02-05T06:59:17.128Z,100601.38
2023-02-05T07:01:19.096Z,100602.06
2023-02-05T07:03:20.770Z,100604.47
2023-02-05T07:05:22.795Z,100609.53
2023-02-05T07:07:24.379Z,100608.41
2023-02-05T07:09:26.219Z,100601.91
2023-02-05T07:11:28.286Z,100596.13
2023-02-05T07:13:30.224Z,100603.03
2023-02-05T07:15:31.938Z,100608.09
2023-02-05T07:17:36.922Z,100604.44
2023-02-05T07:19:38.795Z,100599.63
2023-02-05T07:21:40.498Z,100597.78
2023-02-05T07:23:42.544Z,100594.78
2023-02-05T07:25:46.440Z,100584.47
2023-02-05T07:27:50.872Z,100584.47
2023-02-05T07:29:53.947Z,100578.78
2023-02-05T07:31:55.619Z,100572.13
2023-02-05T07:33:57.526Z,100562.91
2023-02-05T07:36:03.065Z,100566.16
2023-02-05T07:38:06.081Z,100561.63
2023-02-05T07:40:08.888Z,100571.94
2023-02-05T07:42:10.555Z,100567.97
2023-02-05T07:44:18.653Z,100568.53
2023-02-05T07:46:22.172Z,100563.72
2023-02-05T07:48:23.987Z,100563.25
2023-02-05T07:50:31.692Z,100571.88
2023-02-05T07:52:33.389Z,100572.25
2023-02-05T07:54:35.416Z,100562.91
2023-02-05T07:56:37.519Z,100567.00
2023-02-05T07:58:39.681Z,100563.03
2023-02-05T08:00:44.180Z,100556.34
2023-02-05T08:02:45.785Z,100548.66
2023-02-05T08:04:47.468Z,100552.03
2023-02-05T08:06:49.319Z,100556.84
2023-02-05T08:08:57.037Z,100552.84
2023-02-05T08:11:01.270Z,100543.19
2023-02-05T08:13:02.887Z,100541.88
2023-02-05T08:15:04.843Z,100535.16
2023-02-05T08:17:06.569Z,100534.88
2023-02-05T08:19:14.093Z,100545.16
2023-02-05T08:21:16.290Z,100541.31
2023-02-05T08:23:17.968Z,100537.34
2023-02-05T08:25:19.661Z,100540.44
2023-02-05T08:27:25.450Z,100537.44
2023-02-05T08:29:27.179Z,100540.66
2023-02-05T08:31:31.964Z,100542.88
2023-02-05T08:33:33.738Z,100540.72
2023-02-05T08:35:37.568Z,100545.81
2023-02-05T08:37:39.298Z,100552.56
2023-02-05T08:39:40.975Z,100546.88
2023-02-05T08:41:42.586Z,100548.25
2023-02-05T08:43:46.865Z,100542.44
2023-02-05T08:45:48.487Z,100535.72
2023-02-05T08:47:53.535Z,100530.88
2023-02-05T08:49:55.118Z,100530.38
2023-02-05T08:51:58.232Z,100523.84
2023-02-05T08:53:59.801Z,100516.13
2023-02-05T08:56:03.335Z,100511.25
2023-02-05T08:58:04.965Z,100508.25
2023-02-05T09:00:10.675Z,100508.09
2023-02-05T09:02:16.044Z,100505.78
2023-02-05T09:04:19.875Z,100498.88
2023-02-05T09:06:21.407Z,100500.09
2023-02-05T09:08:23.983Z,100498.09
2023-02-05T09:10:25.637Z,100499.31
2023-02-05T09:12:27.398Z,100486.34
2023-02-05T09:14:36.096Z,100491.56
2023-02-05T09:16:37.615Z,100486.53
2023-02-05T09:18:39.217Z,100489.59
2023-02-05T09:20:46.023Z,100486.59
2023-02-05T09:22:47.700Z,100484.56
2023-02-05T09:24:49.577Z,100487.13
2023-02-05T09:26:51.288Z,100480.56
2023-02-05T09:28:52.895Z,100468.59
2023-02-05T09:30:54.536Z,100467.44
2023-02-05T09:32:56.227Z,100461.19
2023-02-05T09:34:57.780Z,100463.56
2023-02-05T09:36:59.471Z,100471.16
2023-02-05T09:39:14.054Z,100474.53
2023-02-05T09:41:27.147Z,100462.75
2023-02-05T09:43:55.942Z,100463.44
2023-02-05T09:46:34.924Z,100461.41
2023-02-05T09:49:09.413Z,100460.22
2023-02-05T09:51:11.747Z,100452.81
2023-02-05T09:53:19.304Z,100449.78
2023-02-05T09:55:28.652Z,100453.16
2023-02-05T09:57:44.837Z,100452.00
2023-02-05T09:59:47.944Z,100451.66
2023-02-05T10:01:59.245Z,100448.63
2023-02-05T10:04:12.021Z,100451.16
2023-02-05T10:06:41.356Z,100449.00
2023-02-05T10:09:09.170Z,100449.66
2023-02-05T10:11:41.583Z,100438.34
2023-02-05T10:13:47.630Z,100432.63
2023-02-05T10:16:01.076Z,100431.47
2023-02-05T10:18:28.942Z,100439.22
2023-02-05T10:20:39.250Z,100433.31
2023-02-05T10:22:46.939Z,100427.41
2023-02-05T10:25:18.318Z,100423.53
2023-02-05T10:27:24.812Z,100416.94
2023-02-05T10:30:05.925Z,100415.63
2023-02-05T10:32:16.367Z,100421.69
2023-02-05T10:34:38.986Z,100418.81
2023-02-05T10:36:40.933Z,100417.47
2023-02-05T10:38:44.872Z,100410.72
2023-02-05T10:40:46.768Z,100403.13
2023-02-05T10:43:01.750Z,100395.69
2023-02-05T10:45:12.313Z,100386.22
2023-02-05T10:47:24.415Z,100384.03
2023-02-05T10:50:01.038Z,100376.44
2023-02-05T10:52:02.679Z,100370.66
2023-02-05T10:54:04.847Z,100371.38
2023-02-05T10:56:09.924Z,100375.41
2023-02-05T10:58:31.134Z,100376.06
2023-02-05T11:00:33.195Z,100378.28
2023-02-05T11:02:40.416Z,100383.31
2023-02-05T11:04:53.171Z,100386.72
2023-02-05T11:06:54.756Z,100384.69
2023-02-05T11:08:56.816Z,100376.38
2023-02-05T11:10:58.544Z,100375.19
2023-02-05T11:13:12.480Z,100371.50
2023-02-05T11:15:28.654Z,100375.72
2023-02-05T11:17:35.023Z,100371.97
2023-02-05T11:19:38.034Z,100374.31
2023-02-05T11:21:56.158Z,100376.03
2023-02-05T11:23:58.156Z,100374.66
2023-02-05T11:26:06.991Z,100375.31
2023-02-05T11:28:23.036Z,100369.91
2023-02-05T11:30:51.906Z,100365.19
2023-02-05T11:32:54.415Z,100372.78
2023-02-05T11:35:28.702Z,100359.91
2023-02-05T11:37:30.327Z,100362.09
2023-02-05T11:39:37.842Z,100361.75
2023-02-05T11:41:51.799Z,100367.66
2023-02-05T11:43:55.038Z,100360.88
2023-02-05T11:45:58.981Z,100354.47
2023-02-05T11:48:04.230Z,100354.94
2023-02-05T11:50:18.859Z,100358.28
2023-02-05T11:52:32.835Z,100359.81
2023-02-05T11:54:42.513Z,100362.50
2023-02-05T11:57:27.182Z,100359.66
2023-02-05T11:59:29.103Z,100348.63
2023-02-05T12:01:34.057Z,100351.19
2023-02-05T12:03:38.883Z,100348.97
2023-02-05T12:05:47.501Z,100346.94
2023-02-05T12:07:55.604Z,100347.44
2023-02-05T12:10:00.388Z,100334.56
2023-02-05T12:12:29.951Z,100333.56
2023-02-05T12:14:42.027Z,100330.84
2023-02-05T12:16:55.865Z,100319.69
2023-02-05T12:19:14.325Z,100310.34
2023-02-05T12:21:33.960Z,100312.53
2023-02-05T12:24:08.028Z,100315.69
2023-02-05T12:26:28.661Z,100313.97
2023-02-05T12:29:03.589Z,100306.50
2023-02-05T12:31:35.327Z,100303.25
2023-02-05T12:34:20.998Z,100304.56
2023-02-05T12:36:44.844Z,100296.09
2023-02-05T12:39:25.062Z,100304.88
2023-02-05T12:41:40.429Z,100293.31
2023-02-05T12:43:48.489Z,100298.38
2023-02-05T12:45:59.140Z,100288.22
2023-02-05T12:48:23.688Z,100290.38
2023-02-05T12:50:37.058Z,100291.22
2023-02-05T12:52:50.156Z,100284.44
2023-02-05T12:55:18.791Z,100295.06
2023-02-05T12:57:38.253Z,100295.91
2023-02-05T12:59:58.300Z,100293.84
2023-02-05T13:02:06.490Z,100298.25
2023-02-05T13:04:20.802Z,100291.81
2023-02-05T13:06:37.199Z,100290.78
2023-02-05T13:08:53.515Z,100286.03
2023-02-05T13:11:02.200Z,100282.97
2023-02-05T13:13:11.498Z,100279.19
2023-02-05T13:15:34.164Z,100279.19
2023-02-05T13:17:42.029Z,100282.75
2023-02-05T13:19:48.266Z,100281.56
2023-02-05T13:22:14.942Z,100280.69
2023-02-05T13:24:48.054Z,100281.56
2023-02-05T13:27:09.307Z,100289.69
2023-02-05T13:29:16.054Z,100291.38
2023-02-05T13:31:22.399Z,100286.59
2023-02-05T13:33:24.113Z,100287.25
2023-02-05T13:35:27.893Z,100286.41
2023-02-05T13:37:37.874Z,100291.66
2023-02-05T13:40:04.192Z,100290.63
2023-02-05T13:42:41.028Z,100283.53
2023-02-05T13:44:57.748Z,100285.19
2023-02-05T13:47:31.741Z,100288.59
2023-02-05T13:49:49.790Z,100282.13
2023-02-05T13:52:24.856Z,100285.69
2023-02-05T13:54:38.916Z,100281.97
2023-02-05T13:57:05.198Z,100279.91
2023-02-05T13:59:34.224Z,100286.19
2023-02-05T14:01:44.776Z,100291.59
2023-02-05T14:03:56.927Z,100295.13
2023-02-05T14:05:58.687Z,100294.09
2023-02-05T14:08:04.590Z,100288.69
2023-02-05T14:10:08.302Z,100292.25
2023-02-05T14:12:12.960Z,100290.38
2023-02-05T14:14:41.715Z,100291.41
2023-02-05T14:16:44.872Z,100291.41
2023-02-05T14:18:49.093Z,100287.00
2023-02-05T14:20:50.772Z,100289.03
2023-02-05T14:22:53.727Z,100294.31
2023-02-05T14:24:55.586Z,100298.03
2023-02-05T14:27:00.451Z,100299.88
2023-02-05T14:29:02.058Z,100297.38
2023-02-05T14:31:05.709Z,100304.00
2023-02-05T14:33:12.090Z,100300.66
2023-02-05T14:35:33.201Z,100299.78
2023-02-05T14:37:42.300Z,100304.38
2023-02-05T14:39:44.371Z,100308.94
2023-02-05T14:42:13.569Z,100313.50
2023-02-05T14:44:44.919Z,100320.13
2023-02-05T14:47:32.856Z,100323.03
2023-02-05T14:50:26.088Z,100318.47
2023-02-05T14:52:37.876Z,100327.63
2023-02-05T14:55:09.426Z,100328.66
2023-02-05T14:58:27.296Z,100334.25
2023-02-05T15:00:32.068Z,100340.88
2023-02-05T15:03:13.990Z,100346.28
2023-02-05T15:05:47.279Z,100347.97
2023-02-05T15:07:52.881Z,100340.69
2023-02-05T15:10:14.104Z,100344.44
2023-02-05T15:14:53.815Z,100341.91
2023-02-05T15:17:07.793Z,100333.94
2023-02-05T15:19:12.232Z,100338.34
2023-02-05T15:21:24.311Z,100336.66
2023-02-05T15:23:26.317Z,100335.63
2023-02-05T15:25:34.673Z,100338.50
2023-02-05T15:27:42.976Z,100345.81
2023-02-05T15:29:47.961Z,100344.97
2023-02-05T15:31:56.196Z,100343.94
2023-02-05T15:34:32.225Z,100346.00
2023-02-05T15:36:49.861Z,100342.44
2023-02-05T15:39:24.100Z,100339.72
2023-02-05T15:41:25.871Z,100335.16
2023-02-05T15:43:27.593Z,100336.00
2023-02-05T15:45:37.587Z,100340.41
2023-02-05T15:47:39.586Z,100340.22
2023-02-05T15:49:44.884Z,100341.22
2023-02-05T15:51:48.024Z,100354.59
2023-02-05T15:53:51.673Z,100350.19
2023-02-05T15:55:53.654Z,100352.91
2023-02-05T16:00:27.612Z,100365.81
2023-02-05T16:02:31.231Z,100367.50
2023-02-05T16:04:37.678Z,100364.94
2023-02-05T16:06:39.352Z,100366.00
2023-02-05T16:08:47.075Z,100367.84
2023-02-05T16:10:54.540Z,100377.00
2023-02-05T16:13:03.947Z,100369.91
2023-02-05T16:15:07.928Z,100363.63
2023-02-05T16:17:37.858Z,100370.06
2023-02-05T16:19:51.367Z,100365.69
2023-02-05T16:22:01.470Z,100366.50
2023-02-05T16:24:15.194Z,100371.13
2023-02-05T16:26:42.503Z,100378.56
2023-02-05T16:28:59.919Z,100377.91
2023-02-05T16:31:02.288Z,100387.72
2023-02-05T16:33:05.279Z,100390.22
2023-02-05T16:35:27.696Z,100396.00
2023-02-05T16:37:31.778Z,100388.06
2023-02-05T16:39:44.157Z,100401.78
2023-02-05T16:42:03.272Z,100404.31
2023-02-05T16:44:07.592Z,100413.66
2023-02-05T16:46:09.477Z,100414.50
2023-02-05T16:48:21.789Z,100420.06
2023-02-05T16:50:40.967Z,100413.81
2023-02-05T16:52:42.749Z,100425.34
2023-02-05T16:54:44.297Z,100425.50
2023-02-05T16:57:11.129Z,100432.78
2023-02-05T16:59:19.458Z,100436.31
2023-02-05T17:01:27.984Z,100431.94
2023-02-05T17:03:37.994Z,100435.47
2023-02-05T17:05:39.772Z,100439.22
2023-02-05T17:07:41.452Z,100449.88
2023-02-05T17:09:43.340Z,100444.66
2023-02-05T17:11:45.159Z,100440.06
2023-02-05T17:13:50.554Z,100443.59
2023-02-05T17:15:52.219Z,100441.75
2023-02-05T17:17:56.156Z,100443.59
2023-02-05T17:20:05.653Z,100445.50
2023-02-05T17:22:16.160Z,100449.22
2023-02-05T17:24:20.939Z,100455.47
2023-02-05T17:26:23.446Z,100454.63
2023-02-05T17:28:28.077Z,100461.75
2023-02-05T17:30:29.944Z,100446.50
2023-02-05T17:32:42.174Z,100446.50
2023-02-05T17:34:45.595Z,100451.06
2023-02-05T17:36:47.169Z,100448.38
2023-02-05T17:38:50.340Z,100446.69
2023-02-05T17:41:12.594Z,100439.56
2023-02-05T17:43:17.594Z,100440.59
2023-02-05T17:47:23.462Z,100448.72
2023-02-05T17:49:25.121Z,100447.91
2023-02-05T17:51:26.873Z,100449.75
2023-02-05T17:53:29.022Z,100438.06
2023-02-05T17:55:31.132Z,100446.19
2023-02-05T17:57:36.671Z,100450.75
2023-02-05T17:59:38.738Z,100457.16
2023-02-05T18:01:40.451Z,100455.81
2023-02-05T18:03:42.637Z,100457.22
2023-02-05T18:05:44.384Z,100464.50
2023-02-05T18:07:49.485Z,100452.16
2023-02-05T18:09:51.148Z,100454.84
2023-02-05T18:11:53.452Z,100456.91
2023-02-05T18:13:55.079Z,100455.88
2023-02-05T18:16:01.619Z,100456.22
2023-02-05T18:18:03.253Z,100460.81
2023-02-05T18:20:06.121Z,100466.38
2023-02-05T18:22:07.938Z,100462.00
2023-02-05T18:24:09.438Z,100460.50
2023-02-05T18:26:11.159Z,100463.34
2023-02-05T18:28:16.071Z,100466.91
2023-02-05T18:30:17.795Z,100465.72
2023-02-05T18:32:19.963Z,100464.22
2023-02-05T18:34:21.601Z,100469.09
2023-02-05T18:36:24.132Z,100468.44
2023-02-05T18:38:25.832Z,100475.88
2023-02-05T18:40:27.403Z,100479.25
2023-02-05T18:42:30.074Z,100489.25
2023-02-05T18:44:32.736Z,100495.84
2023-02-05T18:46:34.979Z,100486.72
2023-02-05T18:48:37.575Z,100488.91
2023-02-05T18:50:39.335Z,100492.28
2023-02-05T18:52:41.014Z,100503.13
2023-02-05T18:54:45.903Z,100505.34
2023-02-05T18:56:48.623Z,100513.28
2023-02-05T18:58:56.192Z,100515.53
2023-02-05T19:00:58.162Z,100515.69
2023-02-05T19:02:59.998Z,100522.94
2023-02-05T19:05:02.744Z,100524.84
2023-02-05T19:07:04.335Z,100533.78
2023-02-05T19:09:05.968Z,100531.78
2023-02-05T19:11:12.700Z,100527.34
2023-02-05T19:13:14.248Z,100524.00
2023-02-05T19:15:16.420Z,100528.03
2023-02-05T19:17:18.186Z,100532.78
2023-02-05T19:19:22.973Z,100535.50
2023-02-05T19:21:26.805Z,100535.84
2023-02-05T19:23:29.181Z,100541.25
2023-02-05T19:25:30.785Z,100540.91
2023-02-05T19:27:32.407Z,100541.25
2023-02-05T19:29:38.323Z,100540.44
2023-02-05T19:31:40.598Z,100532.47
2023-02-05T19:33:42.723Z,100537.03
2023-02-05T19:35:48.912Z,100538.91
2023-02-05T19:37:50.712Z,100542.63
2023-02-05T19:39:52.303Z,100552.25
2023-02-05T19:41:53.937Z,100540.94
2023-02-05T19:43:58.791Z,100552.78
2023-02-05T19:46:06.044Z,100549.22
2023-02-05T19:48:07.736Z,100551.28
2023-02-05T19:50:09.721Z,100556.50
2023-02-05T19:52:11.475Z,100560.41
2023-02-05T19:54:14.893Z,100558.53
2023-02-05T19:56:22.131Z,100553.97
2023-02-05T19:58:27.981Z,100549.41
2023-02-05T20:00:31.176Z,100564.81
2023-02-05T20:02:36.309Z,100571.88
2023-02-05T20:04:40.545Z,100571.88
2023-02-05T20:06:47.474Z,100578.81
2023-02-05T20:11:55.838Z,100579.84
2023-02-05T20:14:00.905Z,100573.25
2023-02-05T20:16:05.741Z,100573.59
2023-02-05T20:19:47.220Z,100574.25
2023-02-05T20:21:49.463Z,100564.94
2023-02-05T20:23:51.163Z,100573.59
2023-02-05T20:26:03.842Z,100578.28
2023-02-05T20:28:05.694Z,100575.44
2023-02-05T20:30:28.517Z,100570.16
2023-02-05T20:32:30.203Z,100567.44
2023-02-05T20:34:35.656Z,100565.41
2023-02-05T20:36:38.763Z,100561.69
2023-02-05T20:38:40.417Z,100563.53
2023-02-05T20:40:42.086Z,100568.28
2023-02-05T20:42:43.657Z,100573.19
2023-02-05T20:44:45.693Z,100571.69
2023-02-05T20:46:48.024Z,100572.19
2023-02-05T20:48:49.954Z,100576.63
2023-02-05T20:50:51.502Z,100579.16
2023-02-05T20:53:00.293Z,100585.75
2023-02-05T20:55:02.834Z,100576.09
2023-02-05T20:57:04.469Z,100581.19
2023-02-05T20:59:08.435Z,100582.72
2023-02-05T21:01:13.410Z,100586.59
2023-02-05T21:03:15.166Z,100599.44
2023-02-05T21:05:16.799Z,100602.16
2023-02-05T21:07:18.378Z,100604.84
2023-02-05T21:09:20.182Z,100602.00
2023-02-05T21:11:24.309Z,100608.25
2023-02-05T21:13:25.869Z,100611.28
2023-02-05T21:15:29.767Z,100607.06
2023-02-05T21:17:31.626Z,100605.38
2023-02-05T21:19:33.351Z,100601.84
2023-02-05T21:21:37.037Z,100615.34
2023-02-05T21:23:39.089Z,100623.81
2023-02-05T21:25:41.058Z,100628.69
2023-02-05T21:27:43.281Z,100633.59
2023-02-05T21:29:45.984Z,100630.41
2023-02-05T21:31:55.509Z,100628.53
2023-02-05T21:33:58.053Z,100625.66
2023-02-05T21:36:07.558Z,100633.94
2023-02-05T21:38:09.091Z,100640.34
2023-02-05T21:40:11.470Z,100637.47
2023-02-05T21:42:18.155Z,100641.88
2023-02-05T21:44:22.919Z,100645.41
2023-02-05T21:46:25.973Z,100650.31
2023-02-05T21:48:27.485Z,100652.34
2023-02-05T21:50:29.332Z,100652.53
2023-02-05T21:52:31.099Z,100646.94
2023-02-05T21:54:35.674Z,100649.81
2023-02-05T21:56:39.918Z,100654.03
2023-02-05T21:58:42.134Z,100651.66
2023-02-05T22:00:44.562Z,100662.66
2023-02-05T22:02:46.235Z,100662.63
2023-02-05T22:04:47.968Z,100662.25
2023-02-05T22:06:52.438Z,100674.91
2023-02-05T22:08:58.532Z,100676.44
2023-02-05T22:11:01.930Z,100685.72
2023-02-05T22:13:03.570Z,100685.03
2023-02-05T22:15:05.446Z,100687.25
2023-02-05T22:17:06.987Z,100692.97
2023-02-05T22:19:08.849Z,100693.78
2023-02-05T22:21:14.168Z,100694.78
2023-02-05T22:23:15.820Z,100704.72
2023-02-05T22:25:17.537Z,100710.25
2023-02-05T22:27:19.236Z,100714.44
2023-02-05T22:29:21.208Z,100721.75
2023-02-05T22:31:23.458Z,100726.59
2023-02-05T22:33:25.132Z,100725.56
2023-02-05T22:35:29.538Z,100729.25
2023-02-05T22:37:30.965Z,100733.28
2023-02-05T22:39:33.801Z,100728.81
2023-02-05T22:41:38.363Z,100732.84
2023-02-05T22:43:40.094Z,100739.97
2023-02-05T22:45:41.759Z,100744.34
2023-02-05T22:47:43.223Z,100745.31
2023-02-05T22:49:44.752Z,100746.59
2023-02-05T22:51:46.317Z,100746.47
2023-02-05T22:53:50.746Z,100743.22
2023-02-05T22:55:52.341Z,100741.69
2023-02-05T22:57:53.924Z,100739.63
2023-02-05T22:59:59.100Z,100744.78
2023-02-05T23:02:04.114Z,100753.91
2023-02-05T23:04:10.565Z,100748.19
2023-02-05T23:06:14.841Z,100747.66
2023-02-05T23:08:18.839Z,100753.56
2023-02-05T23:10:24.069Z,100756.44
2023-02-05T23:12:25.552Z,100757.59
2023-02-05T23:14:27.118Z,100755.84
2023-02-05T23:16:33.248Z,100746.91
2023-02-05T23:18:35.023Z,100758.69
2023-02-05T23:20:36.752Z,100754.16
2023-02-05T23:22:38.367Z,100758.22
2023-02-05T23:24:39.942Z,100759.16
2023-02-05T23:26:44.284Z,100762.72
2023-02-05T23:28:45.903Z,100763.00
2023-02-05T23:30:48.268Z,100778.34
2023-02-05T23:32:49.813Z,100781.69
2023-02-05T23:34:51.486Z,100774.56
2023-02-05T23:36:53.049Z,100764.38
2023-02-05T23:38:58.321Z,100768.25
2023-02-05T23:41:00.332Z,100760.84
2023-02-05T23:43:01.811Z,100766.56
2023-02-05T23:45:03.677Z,100759.63
2023-02-05T23:47:05.579Z,100759.94
2023-02-05T23:49:08.078Z,100766.94
2023-02-05T23:51:09.779Z,100773.31
2023-02-05T23:53:11.630Z,100779.00
2023-02-05T23:55:16.522Z,100783.56
2023-02-05T23:57:18.180Z,100786.41
2023-02-05T23:59:19.760Z,100785.03
